Time;durP1;ratioP1;P1;durP2;ratioP2;P2;SDS_P1;SDS_P2;PMS_P1;PMS_P2;Temp;Humidity;BMP_temperature;BMP_pressure;BME280_temperature;BME280_humidity;BME280_pressure;Samples;Min_cycle;Max_cycle;Signal;HPM_P1;HPM_P2
2022/06/03 00:01:45;;;;;;;3.13;2.17;;;19.90;1.00;;;;;;4965533;28;20434;-74
2022/06/03 00:04:52;;;;;;;5.13;2.47;;;19.80;1.00;;;;;;4961145;28;20878;-73
2022/06/03 00:07:31;;;;;;;3.57;2.40;;;19.80;1.00;;;;;;4971623;28;20423;-73
2022/06/03 00:10:26;;;;;;;2.50;2.00;;;19.80;1.00;;;;;;4958173;28;20934;-73
2022/06/03 00:13:33;;;;;;;2.67;2.20;;;19.80;1.00;;;;;;4963739;28;20950;-74
2022/06/03 00:16:11;;;;;;;3.10;2.37;;;19.80;1.00;;;;;;4969628;28;20465;-74
2022/06/03 00:18:58;;;;;;;3.30;2.33;;;19.80;1.00;;;;;;4969173;28;20422;-74
2022/06/03 00:21:52;;;;;;;3.70;2.30;;;19.70;1.00;;;;;;4988245;28;20915;-74
2022/06/03 00:24:40;;;;;;;3.50;2.40;;;19.70;1.00;;;;;;4977624;28;20468;-73
2022/06/03 00:27:33;;;;;;;4.27;2.13;;;19.70;1.00;;;;;;4974409;28;20893;-73
2022/06/03 00:30:20;;;;;;;4.47;2.53;;;19.70;1.00;;;;;;4965208;28;20793;-74
2022/06/03 00:33:03;;;;;;;3.10;2.37;;;19.70;1.00;;;;;;4966800;28;20810;-72
2022/06/03 00:35:52;;;;;;;2.73;2.10;;;19.70;1.00;;;;;;4969997;28;20458;-72
2022/06/03 00:38:36;;;;;;;2.70;2.20;;;19.60;1.00;;;;;;4973435;28;20427;-74
2022/06/03 00:41:13;;;;;;;2.73;1.93;;;19.60;1.00;;;;;;4970518;28;20441;-72
2022/06/03 00:43:48;;;;;;;5.53;2.20;;;19.60;1.00;;;;;;4971156;28;20553;-73
2022/06/03 00:46:35;;;;;;;5.23;2.53;;;19.60;1.00;;;;;;4969809;28;20457;-73
2022/06/03 00:49:32;;;;;;;2.60;2.10;;;19.70;1.00;;;;;;4953509;28;20434;-73
2022/06/03 00:52:28;;;;;;;3.37;2.20;;;19.60;1.00;;;;;;4977575;28;20490;-72
2022/06/03 00:55:31;;;;;;;5.63;2.23;;;19.60;1.00;;;;;;4961211;28;20448;-73
2022/06/03 00:58:28;;;;;;;5.07;2.50;;;19.60;1.00;;;;;;4963093;28;20528;-73
2022/06/03 01:01:17;;;;;;;2.73;2.10;;;19.60;1.00;;;;;;4966755;28;20454;-72
2022/06/03 01:04:15;;;;;;;3.90;2.23;;;19.50;1.00;;;;;;4958034;28;20538;-73
2022/06/03 01:06:52;;;;;;;3.27;1.90;;;19.50;1.00;;;;;;4975993;28;20493;-73
2022/06/03 01:09:31;;;;;;;3.37;2.43;;;19.50;1.00;;;;;;4970507;28;20414;-73
2022/06/03 01:12:06;;;;;;;6.33;2.67;;;19.50;1.00;;;;;;4977821;28;20719;-73
2022/06/03 01:14:58;;;;;;;4.97;2.30;;;19.60;1.00;;;;;;4974200;28;20418;-73
2022/06/03 01:17:44;;;;;;;3.30;2.33;;;19.60;1.00;;;;;;4976555;28;20432;-73
2022/06/03 01:20:28;;;;;;;3.30;2.50;;;19.50;1.00;;;;;;4988772;28;20441;-73
2022/06/03 01:23:23;;;;;;;4.17;2.30;;;19.50;1.00;;;;;;4969693;28;20586;-73
2022/06/03 01:26:20;;;;;;;6.30;2.20;;;19.50;1.00;;;;;;4974913;28;20541;-74
2022/06/03 01:29:05;;;;;;;3.10;2.20;;;19.50;1.00;;;;;;4961327;28;20831;-73
2022/06/03 01:31:52;;;;;;;3.50;2.20;;;19.50;1.00;;;;;;4983540;28;20544;-72
2022/06/03 01:34:29;;;;;;;9.03;3.00;;;19.50;1.00;;;;;;4960154;28;20426;-73
2022/06/03 01:37:15;;;;;;;2.50;2.00;;;19.50;1.00;;;;;;4980161;28;20448;-73
2022/06/03 01:40:19;;;;;;;4.73;2.13;;;19.40;1.00;;;;;;4972386;28;20758;-73
2022/06/03 01:42:58;;;;;;;3.40;2.10;;;19.40;1.00;;;;;;4973319;28;20457;-73
2022/06/03 01:45:29;;;;;;;5.67;2.10;;;19.40;1.00;;;;;;4977697;28;20445;-73
2022/06/03 01:48:25;;;;;;;3.70;2.30;;;19.40;1.00;;;;;;4970545;28;20514;-73
2022/06/03 01:51:14;;;;;;;2.93;2.27;;;19.30;1.00;;;;;;4969972;28;20458;-72
2022/06/03 01:54:10;;;;;;;4.57;2.23;;;19.30;1.00;;;;;;4979452;28;20932;-73
2022/06/03 01:57:03;;;;;;;4.17;2.30;;;19.30;1.00;;;;;;4985127;28;20549;-72
2022/06/03 02:00:01;;;;;;;2.53;2.00;;;19.30;1.00;;;;;;4970183;28;20434;-73
2022/06/03 02:03:05;;;;;;;2.53;1.90;;;19.30;1.00;;;;;;4980387;28;20472;-72
2022/06/03 02:06:01;;;;;;;3.40;2.23;;;19.30;1.00;;;;;;4970704;28;20462;-73
2022/06/03 02:08:48;;;;;;;3.33;2.10;;;19.20;1.00;;;;;;4982397;28;20410;-73
2022/06/03 02:11:51;;;;;;;2.70;2.00;;;19.20;1.00;;;;;;4979087;28;20700;-73
2022/06/03 02:14:55;;;;;;;3.13;2.23;;;19.20;1.00;;;;;;4976029;28;20917;-73
2022/06/03 02:17:58;;;;;;;3.27;2.10;;;19.10;1.00;;;;;;4971961;28;20877;-73
2022/06/03 02:20:46;;;;;;;3.33;2.10;;;19.20;1.00;;;;;;4959728;28;20442;-73
2022/06/03 02:23:46;;;;;;;2.40;2.00;;;19.20;1.00;;;;;;4977255;28;20998;-74
2022/06/03 02:26:58;;;;;;;3.13;2.03;;;19.10;1.00;;;;;;4970776;28;20925;-74
2022/06/03 02:32:59;;;;;;;2.70;2.00;;;19.00;1.00;;;;;;4975582;28;20413;-73
2022/06/03 02:35:40;;;;;;;3.70;2.37;;;18.90;1.00;;;;;;4953611;28;20461;-73
2022/06/03 02:38:08;;;;;;;3.43;2.00;;;18.80;1.00;;;;;;4972938;28;20445;-73
2022/06/03 02:41:07;;;;;;;4.33;2.47;;;18.80;1.00;;;;;;4973107;28;20450;-72
2022/06/03 02:43:54;;;;;;;2.40;2.10;;;18.80;1.00;;;;;;4982577;28;20466;-73
2022/06/03 02:47:10;;;;;;;3.80;2.40;;;18.80;1.00;;;;;;4976550;28;20464;-74
2022/06/03 02:49:48;;;;;;;4.10;2.50;;;18.80;1.00;;;;;;4934895;28;20778;-72
2022/06/03 02:52:39;;;;;;;2.60;2.27;;;18.80;1.00;;;;;;4981003;28;20778;-73
2022/06/03 02:55:23;;;;;;;2.60;2.20;;;18.90;1.00;;;;;;4977465;28;20541;-72
2022/06/03 02:58:30;;;;;;;4.57;2.13;;;18.90;1.00;;;;;;4975309;28;20830;-73
2022/06/03 03:01:09;;;;;;;5.40;2.40;;;18.90;1.00;;;;;;4961953;28;20450;-73
2022/06/03 03:04:10;;;;;;;5.90;2.50;;;18.90;1.00;;;;;;4975174;28;21282;-72
2022/06/03 03:07:13;;;;;;;4.80;2.50;;;18.80;1.00;;;;;;4973728;28;20454;-73
2022/06/03 03:09:57;;;;;;;3.20;2.30;;;18.80;1.00;;;;;;4965262;28;20453;-73
2022/06/03 03:12:23;;;;;;;3.50;2.30;;;18.80;1.00;;;;;;4962197;28;20583;-73
2022/06/03 03:15:13;;;;;;;3.30;2.30;;;18.80;1.00;;;;;;4968462;28;20632;-73
2022/06/03 03:18:18;;;;;;;5.17;2.60;;;18.70;1.00;;;;;;4984616;28;20179;-73
2022/06/03 03:21:00;;;;;;;4.00;2.73;;;18.60;1.00;;;;;;4974253;28;20449;-72
2022/06/03 03:23:49;;;;;;;3.00;2.50;;;18.40;1.00;;;;;;4970558;28;20509;-73
2022/06/03 03:26:43;;;;;;;2.93;2.57;;;18.20;1.00;;;;;;4979583;28;20434;-72
2022/06/03 03:29:22;;;;;;;8.50;2.87;;;18.00;1.00;;;;;;4977742;28;20957;-72
2022/06/03 03:32:32;;;;;;;6.63;2.60;;;17.80;1.00;;;;;;4984240;28;20439;-73
2022/06/03 03:35:20;;;;;;;7.30;3.20;;;17.70;1.00;;;;;;4979310;28;20455;-73
2022/06/03 03:37:59;;;;;;;4.07;2.60;;;17.50;1.00;;;;;;4984818;28;20480;-72
2022/06/03 03:40:53;;;;;;;4.13;2.90;;;17.30;1.00;;;;;;4990141;28;20530;-73
2022/06/03 03:43:54;;;;;;;4.20;2.70;;;17.30;1.00;;;;;;4949026;28;20475;-73
2022/06/03 03:46:41;;;;;;;6.00;3.03;;;18.20;1.00;;;;;;4978067;28;20433;-72
2022/06/03 03:49:28;;;;;;;5.63;2.83;;;17.20;1.00;;;;;;4961170;28;20614;-73
2022/06/03 03:52:18;;;;;;;3.50;2.90;;;17.20;1.00;;;;;;4973133;28;20418;-73
2022/06/03 03:55:30;;;;;;;3.70;2.90;;;17.30;1.00;;;;;;4966872;28;20493;-74
2022/06/03 03:58:17;;;;;;;4.00;2.73;;;17.30;1.00;;;;;;4905087;29;20527;-72
2022/06/03 04:01:08;;;;;;;3.80;3.10;;;17.30;1.00;;;;;;4972082;28;21042;-73
2022/06/03 04:03:59;;;;;;;5.70;3.50;;;17.30;1.00;;;;;;4971313;28;20525;-73
2022/06/03 04:06:50;;;;;;;3.23;2.93;;;17.20;1.00;;;;;;4970675;28;20449;-73
2022/06/03 04:09:46;;;;;;;6.57;3.53;;;17.20;1.00;;;;;;4967806;28;20438;-73
2022/06/03 04:12:34;;;;;;;4.03;3.30;;;17.30;1.00;;;;;;4973379;28;20415;-73
2022/06/03 04:15:41;;;;;;;4.30;3.10;;;17.20;1.00;;;;;;4970548;28;21050;-74
2022/06/03 04:18:34;;;;;;;4.30;2.80;;;17.20;1.00;;;;;;4965688;28;20944;-74
2022/06/03 04:21:09;;;;;;;5.20;2.80;;;17.30;1.00;;;;;;4974708;28;20955;-72
2022/06/03 04:24:10;;;;;;;5.23;3.03;;;17.30;1.00;;;;;;4959247;28;20832;-72
2022/06/03 04:26:41;;;;;;;9.23;2.97;;;17.30;1.00;;;;;;4969862;28;20442;-72
2022/06/03 04:29:44;;;;;;;5.50;3.47;;;17.30;1.00;;;;;;4964683;28;20969;-74
2022/06/03 04:32:40;;;;;;;3.83;3.10;;;17.30;1.00;;;;;;4959325;28;20429;-72
2022/06/03 04:35:15;;;;;;;7.43;3.23;;;17.40;1.00;;;;;;4965698;28;20456;-73
2022/06/03 04:38:04;;;;;;;3.40;2.90;;;17.40;1.00;;;;;;4973612;28;20426;-73
2022/06/03 04:41:13;;;;;;;4.10;3.10;;;17.40;1.00;;;;;;4965541;28;20519;-73
2022/06/03 04:43:54;;;;;;;4.23;3.40;;;17.50;1.00;;;;;;4966028;28;20455;-73
2022/06/03 04:47:17;;;;;;;9.03;3.40;;;17.40;1.00;;;;;;4963680;28;20457;-73
2022/06/03 04:50:19;;;;;;;6.43;3.20;;;17.30;1.00;;;;;;4961655;28;20449;-72
2022/06/03 04:53:36;;;;;;;3.03;2.70;;;17.40;1.00;;;;;;4971213;28;20470;-73
2022/06/03 04:56:21;;;;;;;4.50;3.43;;;17.50;1.00;;;;;;4965698;28;20445;-74
2022/06/03 04:59:21;;;;;;;4.13;3.40;;;17.60;1.00;;;;;;4972092;28;20422;-73
2022/06/03 05:02:23;;;;;;;3.80;3.13;;;17.60;1.00;;;;;;4983855;28;20423;-73
2022/06/03 05:05:19;;;;;;;4.83;3.17;;;17.60;1.00;;;;;;4985508;28;20813;-73
2022/06/03 05:08:38;;;;;;;5.60;3.47;;;17.60;1.00;;;;;;4971449;28;20460;-73
2022/06/03 05:11:42;;;;;;;3.90;3.43;;;17.40;1.00;;;;;;4942652;29;20884;-72
2022/06/03 05:14:22;;;;;;;4.73;3.13;;;17.20;1.00;;;;;;4926878;29;20441;-72
2022/06/03 05:16:59;;;;;;;6.50;3.40;;;17.10;1.40;;;;;;4971080;28;20466;-74
2022/06/03 05:19:43;;;;;;;3.50;3.10;;;17.00;1.00;;;;;;4971065;28;20434;-72
2022/06/03 05:22:24;;;;;;;3.67;3.03;;;17.00;1.00;;;;;;4977787;28;20487;-73
2022/06/03 05:25:34;;;;;;;5.50;3.17;;;17.00;1.10;;;;;;4987528;28;20454;-73
2022/06/03 05:28:03;;;;;;;4.40;3.50;;;17.20;1.20;;;;;;4957434;28;20446;-72
2022/06/03 05:30:53;;;;;;;4.00;3.60;;;17.30;1.00;;;;;;4974929;28;20427;-72
2022/06/03 05:33:24;;;;;;;4.43;3.70;;;17.40;1.00;;;;;;4972009;28;20442;-74
2022/06/03 05:36:23;;;;;;;4.63;3.53;;;17.60;1.40;;;;;;4979637;28;20774;-73
2022/06/03 05:39:13;;;;;;;6.53;3.40;;;17.60;1.10;;;;;;4973306;28;20435;-73
2022/06/03 05:44:57;;;;;;;10.73;3.83;;;17.90;1.00;;;;;;4967158;28;20441;-73
2022/06/03 05:47:35;;;;;;;4.40;4.00;;;18.00;1.00;;;;;;4963124;28;20415;-72
2022/06/03 05:50:10;;;;;;;8.10;3.80;;;18.10;1.00;;;;;;4965850;28;20425;-73
2022/06/03 05:53:02;;;;;;;4.57;3.57;;;18.40;1.00;;;;;;4986155;28;20754;-74
2022/06/03 05:55:55;;;;;;;5.47;3.67;;;18.60;1.00;;;;;;4961553;28;20454;-73
2022/06/03 05:58:47;;;;;;;6.00;3.20;;;18.70;1.00;;;;;;4970248;28;20497;-72
2022/06/03 06:01:32;;;;;;;10.73;3.60;;;18.80;1.00;;;;;;4944037;28;20957;-73
2022/06/03 06:04:11;;;;;;;3.30;3.00;;;19.00;1.00;;;;;;4971921;28;20465;-72
2022/06/03 06:06:45;;;;;;;5.17;3.20;;;19.20;1.00;;;;;;4988998;28;20601;-73
2022/06/03 06:09:28;;;;;;;5.93;3.50;;;19.40;1.00;;;;;;4976817;28;20403;-73
2022/06/03 06:12:24;;;;;;;7.80;3.97;;;19.60;1.00;;;;;;4971415;28;20438;-72
2022/06/03 06:15:07;;;;;;;4.50;3.30;;;19.80;1.00;;;;;;4971173;28;20423;-73
2022/06/03 06:17:58;;;;;;;4.77;3.10;;;20.00;1.00;;;;;;4968187;28;20909;-73
2022/06/03 06:20:41;;;;;;;6.93;3.50;;;20.10;1.00;;;;;;4936518;28;20420;-71
2022/06/03 06:23:28;;;;;;;5.33;3.47;;;20.10;1.00;;;;;;4979140;28;20469;-73
2022/06/03 06:26:12;;;;;;;4.37;3.20;;;20.10;1.00;;;;;;4988753;28;20465;-73
2022/06/03 06:28:49;;;;;;;7.13;3.50;;;20.30;1.00;;;;;;4969299;28;20933;-73
2022/06/03 06:31:46;;;;;;;4.63;2.90;;;20.50;1.00;;;;;;4970404;28;20430;-72
2022/06/03 06:34:34;;;;;;;6.70;3.23;;;20.60;1.00;;;;;;4970604;28;20407;-73
2022/06/03 06:37:15;;;;;;;7.47;3.43;;;20.70;1.00;;;;;;4958898;28;20885;-73
2022/06/03 06:39:53;;;;;;;3.90;3.40;;;20.80;1.00;;;;;;4967000;28;20407;-72
2022/06/03 06:42:45;;;;;;;5.33;3.27;;;22.30;1.00;;;;;;4978518;28;20465;-73
2022/06/03 06:45:20;;;;;;;3.93;3.43;;;21.00;1.00;;;;;;4968010;28;20568;-73
2022/06/03 06:48:08;;;;;;;6.90;3.53;;;21.10;1.00;;;;;;4973857;28;20414;-73
2022/06/03 06:50:43;;;;;;;4.40;3.53;;;21.20;1.00;;;;;;4959872;28;20435;-74
2022/06/03 06:53:11;;;;;;;5.27;3.90;;;21.30;1.00;;;;;;4971402;28;20438;-74
2022/06/03 06:56:07;;;;;;;3.90;3.20;;;21.50;1.00;;;;;;4968762;28;20826;-73
2022/06/03 06:58:46;;;;;;;5.37;3.40;;;21.60;1.00;;;;;;4974180;28;20517;-73
2022/06/03 07:01:18;;;;;;;6.40;3.50;;;21.70;1.00;;;;;;4964586;28;20428;-72
2022/06/03 07:04:34;;;;;;;5.87;3.60;;;21.90;1.00;;;;;;4965750;28;20219;-73
2022/06/03 07:07:11;;;;;;;9.17;3.60;;;22.00;1.00;;;;;;4968527;28;20445;-72
2022/06/03 07:09:58;;;;;;;4.30;3.33;;;22.40;1.00;;;;;;4971753;28;20549;-74
2022/06/03 07:12:30;;;;;;;4.73;3.80;;;22.20;1.00;;;;;;4980756;28;20429;-74
2022/06/03 07:15:11;;;;;;;6.47;3.67;;;22.40;1.00;;;;;;4975112;28;20454;-72
2022/06/03 07:21:02;;;;;;;5.50;3.70;;;22.50;1.00;;;;;;4983067;28;20444;-73
2022/06/03 07:23:50;;;;;;;4.80;3.63;;;22.80;1.00;;;;;;4988111;28;20943;-73
2022/06/03 07:26:37;;;;;;;4.67;3.63;;;23.10;1.00;;;;;;4964659;28;20444;-73
2022/06/03 07:29:21;;;;;;;7.47;4.00;;;23.20;1.00;;;;;;4950053;29;20498;-74
2022/06/03 07:32:08;;;;;;;6.80;4.00;;;23.40;1.00;;;;;;4966080;28;20426;-74
2022/06/03 07:35:01;;;;;;;5.23;4.10;;;23.80;1.00;;;;;;4965554;28;20513;-74
2022/06/03 07:37:40;;;;;;;6.63;3.70;;;23.80;1.00;;;;;;4977607;28;20410;-73
2022/06/03 07:40:14;;;;;;;5.27;3.63;;;23.90;1.00;;;;;;4970068;28;20415;-74
2022/06/03 07:43:00;;;;;;;5.37;3.70;;;24.10;1.00;;;;;;4968611;28;20530;-74
2022/06/03 07:45:29;;;;;;;5.50;4.23;;;24.20;1.00;;;;;;4972173;28;20961;-74
2022/06/03 07:47:58;;;;;;;5.00;3.53;;;24.40;1.00;;;;;;4975774;28;20426;-75
2022/06/03 07:50:26;;;;;;;5.57;4.30;;;24.50;1.00;;;;;;4967700;28;20849;-74
2022/06/03 07:53:10;;;;;;;5.43;3.77;;;24.80;1.00;;;;;;4977190;28;20415;-74
2022/06/03 07:55:35;;;;;;;4.70;4.20;;;24.90;1.00;;;;;;4961998;28;20656;-74
2022/06/03 07:58:15;;;;;;;7.67;3.80;;;25.10;1.00;;;;;;4956766;28;20521;-76
2022/06/03 08:00:43;;;;;;;5.03;3.50;;;25.30;1.00;;;;;;4962796;28;20199;-76
2022/06/03 08:03:19;;;;;;;3.90;3.50;;;25.50;1.00;;;;;;4962409;28;20467;-76
2022/06/03 08:05:48;;;;;;;11.70;4.00;;;25.80;1.00;;;;;;4961966;28;20834;-76
2022/06/03 08:11:22;;;;;;;4.70;3.80;;;26.10;1.00;;;;;;4967606;28;20437;-76
2022/06/03 08:13:54;;;;;;;5.20;4.70;;;26.00;1.00;;;;;;4979507;28;20429;-76
2022/06/03 08:16:40;;;;;;;4.67;4.17;;;26.00;1.00;;;;;;4963320;28;20525;-76
2022/06/03 08:19:11;;;;;;;5.50;3.60;;;26.00;1.00;;;;;;4957726;28;20537;-75
2022/06/03 08:21:47;;;;;;;5.90;4.30;;;26.20;1.00;;;;;;4973234;28;20772;-76
2022/06/03 08:24:35;;;;;;;4.43;4.03;;;26.40;1.00;;;;;;4963459;28;20502;-78
2022/06/03 08:27:12;;;;;;;4.37;3.80;;;26.70;1.00;;;;;;4967801;28;20493;-76
2022/06/03 08:30:00;;;;;;;6.40;4.20;;;27.00;1.00;;;;;;4968290;28;20932;-76
2022/06/03 08:32:31;;;;;;;8.33;4.23;;;27.30;1.00;;;;;;4965216;28;20446;-76
2022/06/03 08:35:00;;;;;;;6.23;4.10;;;27.30;1.00;;;;;;4960344;28;20306;-76
2022/06/03 08:37:32;;;;;;;5.57;4.03;;;27.50;1.00;;;;;;4967854;28;20253;-76
2022/06/03 08:40:01;;;;;;;6.23;4.60;;;27.70;1.00;;;;;;4968974;28;20187;-76
2022/06/03 08:42:43;;;;;;;7.20;4.90;;;27.90;1.00;;;;;;4960827;28;20206;-74
2022/06/03 08:45:27;;;;;;;6.80;4.43;;;28.00;1.00;;;;;;4957171;28;20210;-73
2022/06/03 08:47:55;;;;;;;9.20;4.60;;;28.20;1.00;;;;;;4965393;28;20182;-74
2022/06/03 08:50:21;;;;;;;9.93;4.50;;;28.30;1.00;;;;;;4968129;28;20175;-74
2022/06/03 08:53:01;;;;;;;7.30;4.57;;;28.20;1.00;;;;;;4968551;28;20182;-73
2022/06/03 08:55:50;;;;;;;5.50;3.90;;;28.10;1.00;;;;;;4969167;28;20318;-74
2022/06/03 08:58:41;;;;;;;8.47;4.50;;;28.00;1.00;;;;;;4956693;28;20246;-73
2022/06/03 09:01:27;;;;;;;4.80;4.10;;;28.00;1.00;;;;;;4928080;28;20297;-73
2022/06/03 09:03:55;;;;;;;10.30;4.13;;;28.80;1.00;;;;;;4965554;28;20654;-74
2022/06/03 09:06:39;;;;;;;9.00;4.80;;;30.10;1.00;;;;;;4971264;28;20210;-74
2022/06/03 09:09:15;;;;;;;6.05;4.30;;;31.10;1.00;;;;;;4964104;28;20251;-74
2022/06/03 09:12:06;;;;;;;6.90;4.40;;;31.60;1.00;;;;;;4965757;28;20550;-74
2022/06/03 09:14:33;;;;;;;4.50;3.78;;;32.60;1.00;;;;;;4965326;28;20183;-80
2022/06/03 09:17:07;;;;;;;4.90;4.00;;;33.50;1.00;;;;;;4969242;28;20207;-78
2022/06/03 09:19:43;;;;;;;13.60;4.25;;;33.90;1.00;;;;;;4969870;28;20183;-79
2022/06/03 09:22:24;;;;;;;7.03;4.10;;;34.90;1.00;;;;;;4971164;28;20202;-80
2022/06/03 09:24:51;;;;;;;11.35;3.90;;;35.60;1.00;;;;;;4974249;28;20262;-74
2022/06/03 09:27:17;;;;;;;7.43;3.90;;;36.00;1.00;;;;;;4965613;28;20235;-75
2022/06/03 09:29:51;;;;;;;6.38;3.83;;;36.30;1.00;;;;;;4967320;28;20267;-75
2022/06/03 09:32:19;;;;;;;4.82;3.45;;;36.60;1.00;;;;;;4964612;28;20184;-75
2022/06/03 09:34:52;;;;;;;4.72;3.50;;;37.00;1.00;;;;;;4971829;28;20199;-75
2022/06/03 09:37:26;;;;;;;5.95;3.60;;;37.80;1.00;;;;;;4967725;28;20253;-76
2022/06/03 09:39:52;;;;;;;3.72;3.40;;;38.30;1.00;;;;;;4968423;28;20167;-75
2022/06/03 09:42:20;;;;;;;4.93;3.17;;;38.30;1.00;;;;;;4969051;28;20283;-75
2022/06/03 09:44:48;;;;;;;5.35;3.63;;;38.60;1.00;;;;;;4971518;28;20208;-75
2022/06/03 09:47:18;;;;;;;4.45;3.67;;;38.60;1.00;;;;;;4969852;28;20203;-75
2022/06/03 09:49:46;;;;;;;3.70;3.20;;;38.70;1.00;;;;;;4971917;28;20179;-77
2022/06/03 09:52:19;;;;;;;3.95;3.55;;;39.30;1.00;;;;;;4958360;28;20172;-76
2022/06/03 09:54:46;;;;;;;4.18;3.53;;;39.70;1.00;;;;;;4963573;28;20203;-76
2022/06/03 09:57:32;;;;;;;4.97;3.50;;;40.20;1.00;;;;;;4971872;28;20179;-75
2022/06/03 10:00:17;;;;;;;9.32;4.78;;;40.80;1.00;;;;;;4969189;28;20187;-75
2022/06/03 10:02:44;;;;;;;4.95;3.30;;;41.00;1.00;;;;;;4968186;28;20675;-76
2022/06/03 10:05:15;;;;;;;3.88;3.05;;;41.20;1.00;;;;;;4954064;28;20305;-76
2022/06/03 10:07:41;;;;;;;6.05;3.50;;;41.70;1.00;;;;;;4970578;28;20163;-76
2022/06/03 10:12:52;;;;;;;6.40;3.63;;;41.30;1.00;;;;;;4951956;29;20447;-75
2022/06/03 10:15:41;;;;;;;6.22;3.10;;;41.30;1.00;;;;;;4969816;28;20206;-76
2022/06/03 10:18:15;;;;;;;4.40;3.50;;;41.50;1.00;;;;;;4968309;28;20175;-75
2022/06/03 10:20:42;;;;;;;4.35;3.42;;;40.60;1.00;;;;;;4968991;28;20510;-76
2022/06/03 10:23:08;;;;;;;7.13;3.78;;;40.30;1.00;;;;;;4971644;28;20245;-75
2022/06/03 10:25:37;;;;;;;8.73;3.95;;;39.80;1.00;;;;;;4970182;28;20693;-76
2022/06/03 10:28:08;;;;;;;9.90;3.92;;;40.40;1.00;;;;;;4971714;28;20183;-76
2022/06/03 10:30:36;;;;;;;7.13;3.80;;;40.10;1.00;;;;;;4970780;28;20179;-76
2022/06/03 10:33:02;;;;;;;5.38;3.80;;;39.30;1.00;;;;;;4970808;28;20191;-75
2022/06/03 10:35:31;;;;;;;5.95;3.75;;;38.20;1.00;;;;;;4971954;28;20275;-76
2022/06/03 10:38:00;;;;;;;8.23;3.53;;;37.30;1.00;;;;;;4973664;28;20175;-80
2022/06/03 10:40:27;;;;;;;4.97;3.78;;;37.40;1.00;;;;;;4975291;28;20521;-76
2022/06/03 10:42:55;;;;;;;5.70;3.75;;;37.80;1.00;;;;;;4971394;28;20210;-75
2022/06/03 10:45:38;;;;;;;4.93;3.80;;;37.50;1.00;;;;;;4971640;28;20187;-76
2022/06/03 10:48:25;;;;;;;5.22;4.20;;;37.50;1.00;;;;;;4971067;28;20201;-76
2022/06/03 10:50:51;;;;;;;6.90;4.05;;;37.30;1.00;;;;;;4968826;28;20210;-76
2022/06/03 11:01:49;;;;;;;6.60;4.28;;;37.70;1.00;;;;;;4971976;28;20669;-75
2022/06/03 11:04:27;;;;;;;6.93;4.15;;;37.40;1.00;;;;;;4968568;28;20534;-75
2022/06/03 11:06:54;;;;;;;7.75;4.55;;;37.70;1.00;;;;;;4970218;28;20634;-75
2022/06/03 11:09:22;;;;;;;5.60;4.00;;;38.40;1.00;;;;;;4971563;28;20363;-75
2022/06/03 11:12:04;;;;;;;7.55;3.75;;;40.10;1.00;;;;;;4970150;28;20167;-76
2022/06/03 11:14:42;;;;;;;4.50;4.00;;;41.30;1.00;;;;;;4971402;28;20254;-76
2022/06/03 11:17:24;;;;;;;5.38;3.50;;;42.00;1.00;;;;;;4972826;28;20170;-75
2022/06/03 11:19:52;;;;;;;5.78;3.60;;;41.70;1.00;;;;;;4967404;28;20518;-75
2022/06/03 11:22:37;;;;;;;3.90;3.42;;;41.80;1.00;;;;;;4958303;28;20701;-75
2022/06/03 11:25:22;;;;;;;8.20;3.50;;;42.00;1.00;;;;;;4952079;28;20194;-76
2022/06/03 11:28:09;;;;;;;7.97;3.53;;;41.90;1.00;;;;;;4952187;28;20704;-76
2022/06/03 11:31:01;;;;;;;3.95;3.47;;;41.70;1.00;;;;;;4954113;28;20610;-76
2022/06/03 11:33:36;;;;;;;5.57;3.42;;;41.20;1.00;;;;;;4970263;28;20179;-76
2022/06/03 11:36:11;;;;;;;5.82;3.83;;;40.90;1.00;;;;;;4971213;28;20191;-77
2022/06/03 11:38:49;;;;;;;5.95;3.95;;;40.60;1.00;;;;;;4970082;28;20178;-76
2022/06/03 11:41:40;;;;;;;5.70;3.70;;;40.30;1.00;;;;;;4968287;28;20622;-76
2022/06/03 11:44:15;;;;;;;8.75;3.80;;;40.40;1.00;;;;;;4964319;28;20223;-76
2022/06/03 11:46:53;;;;;;;5.05;3.95;;;40.30;1.00;;;;;;4965926;28;20293;-76
2022/06/03 11:49:20;;;;;;;7.15;3.95;;;39.90;1.00;;;;;;4964935;28;20190;-76
2022/06/03 11:51:47;;;;;;;6.80;4.07;;;39.30;1.00;;;;;;4969892;28;20269;-76
2022/06/03 11:54:15;;;;;;;6.05;4.00;;;38.60;1.00;;;;;;4970139;28;20241;-76
2022/06/03 11:56:43;;;;;;;4.93;4.25;;;38.10;1.00;;;;;;4968801;28;20203;-76
2022/06/03 11:59:25;;;;;;;6.30;4.00;;;37.70;1.00;;;;;;4978822;28;20541;-76
2022/06/03 12:02:08;;;;;;;4.82;4.30;;;37.40;1.00;;;;;;4968663;28;20234;-76
2022/06/03 12:04:43;;;;;;;5.35;3.70;;;38.10;1.00;;;;;;4976836;28;20194;-75
2022/06/03 12:07:34;;;;;;;6.45;4.10;;;38.10;1.00;;;;;;4950935;28;20247;-78
2022/06/03 12:10:40;;;;;;;6.53;4.20;;;37.60;1.00;;;;;;5002646;28;20262;-75
2022/06/03 12:13:17;;;;;;;7.72;3.80;;;36.90;1.00;;;;;;4965055;28;20190;-76
2022/06/03 12:15:56;;;;;;;6.38;4.20;;;36.30;1.00;;;;;;4973435;28;20207;-75
2022/06/03 12:18:27;;;;;;;4.40;4.00;;;35.70;1.00;;;;;;4966952;28;20688;-75
2022/06/03 12:20:55;;;;;;;6.75;3.92;;;35.20;1.00;;;;;;4968674;28;20235;-73
2022/06/03 12:23:20;;;;;;;7.75;3.90;;;34.80;1.00;;;;;;4976144;28;20256;-75
2022/06/03 12:25:49;;;;;;;6.25;3.70;;;35.40;1.00;;;;;;4969165;28;20286;-74
2022/06/03 12:28:31;;;;;;;4.32;3.90;;;36.40;1.00;;;;;;4977437;28;20529;-76
2022/06/03 12:31:00;;;;;;;5.13;3.40;;;37.20;1.00;;;;;;4980169;28;20617;-75
2022/06/03 12:33:53;;;;;;;7.53;3.40;;;37.60;1.00;;;;;;4975632;28;20179;-75
2022/06/03 12:36:47;;;;;;;4.00;3.45;;;37.10;1.00;;;;;;4975281;28;20276;-75
2022/06/03 12:39:28;;;;;;;4.00;3.35;;;36.40;1.00;;;;;;4971017;28;20281;-74
2022/06/03 12:41:59;;;;;;;4.35;3.22;;;35.60;1.00;;;;;;4970262;28;20194;-76
2022/06/03 12:44:42;;;;;;;4.47;3.42;;;34.00;1.00;;;;;;4975814;28;20179;-75
2022/06/03 12:47:33;;;;;;;4.20;3.08;;;34.00;1.00;;;;;;4958174;28;20175;-74
2022/06/03 12:50:05;;;;;;;4.25;3.40;;;33.20;1.00;;;;;;4968358;28;20179;-75
2022/06/03 12:52:31;;;;;;;5.00;3.40;;;33.00;1.00;;;;;;4962018;28;20187;-75
2022/06/03 12:54:58;;;;;;;4.78;3.40;;;32.70;1.00;;;;;;4977145;28;20728;-74
2022/06/03 12:57:43;;;;;;;3.47;3.13;;;32.40;1.00;;;;;;4973343;28;20189;-74
2022/06/03 13:00:09;;;;;;;4.25;3.78;;;32.00;1.00;;;;;;4977531;28;20649;-75
2022/06/03 13:02:36;;;;;;;7.30;3.70;;;31.80;1.00;;;;;;4975544;28;20234;-75
2022/06/03 13:05:03;;;;;;;5.38;4.13;;;31.50;1.00;;;;;;4967042;28;20214;-74
2022/06/03 13:07:28;;;;;;;6.15;3.38;;;31.20;1.00;;;;;;4969887;28;20289;-75
2022/06/03 13:10:17;;;;;;;4.03;3.17;;;31.00;1.00;;;;;;4966939;28;20679;-75
2022/06/03 13:12:45;;;;;;;4.93;3.47;;;30.70;1.00;;;;;;4973538;28;20183;-77
2022/06/03 13:15:21;;;;;;;4.80;3.22;;;30.50;1.00;;;;;;4968034;28;20229;-76
2022/06/03 13:18:20;;;;;;;5.05;3.30;;;30.40;1.00;;;;;;4969502;28;20192;-74
2022/06/03 13:20:56;;;;;;;4.47;3.67;;;30.30;1.00;;;;;;4971113;28;20176;-75
2022/06/03 13:23:51;;;;;;;8.73;4.70;;;30.30;1.00;;;;;;4973915;28;20320;-75
2022/06/03 13:26:20;;;;;;;6.55;4.22;;;30.30;1.00;;;;;;4973303;28;20712;-75
2022/06/03 13:28:48;;;;;;;5.35;4.70;;;30.30;1.00;;;;;;4971869;28;20181;-76
2022/06/03 13:31:16;;;;;;;8.02;4.63;;;30.30;1.00;;;;;;4971009;28;20298;-74
2022/06/03 13:36:44;;;;;;;11.98;5.20;;;30.50;1.00;;;;;;4965870;28;20701;-77
2022/06/03 13:39:23;;;;;;;9.68;4.68;;;30.40;1.00;;;;;;4958576;28;20202;-75
2022/06/03 13:44:41;;;;;;;11.68;5.15;;;29.80;1.00;;;;;;4972622;28;20273;-74
2022/06/03 13:47:12;;;;;;;6.47;5.22;;;30.10;1.00;;;;;;4971913;28;20243;-76
2022/06/03 13:49:45;;;;;;;12.13;4.85;;;29.70;1.00;;;;;;4975457;28;20163;-75
2022/06/03 13:52:14;;;;;;;8.18;4.45;;;29.60;1.00;;;;;;4978807;28;20246;-75
2022/06/03 13:54:48;;;;;;;6.90;4.72;;;29.50;1.00;;;;;;4980595;28;20176;-74
2022/06/03 13:57:13;;;;;;;5.57;4.45;;;29.50;1.00;;;;;;4984340;28;20182;-75
2022/06/03 13:59:41;;;;;;;14.25;4.75;;;29.40;1.00;;;;;;4983675;28;20282;-75
2022/06/03 14:02:19;;;;;;;5.60;4.85;;;29.50;1.00;;;;;;4970455;28;20198;-77
2022/06/03 14:05:09;;;;;;;8.98;4.80;;;29.30;1.00;;;;;;4974526;28;20438;-74
2022/06/03 14:07:40;;;;;;;5.75;4.70;;;29.30;1.00;;;;;;4970753;28;20175;-74
2022/06/03 14:10:12;;;;;;;9.65;4.57;;;29.40;1.00;;;;;;4960685;28;20187;-74
2022/06/03 14:12:52;;;;;;;6.40;4.72;;;29.40;1.00;;;;;;4953310;28;20190;-75
2022/06/03 14:15:38;;;;;;;8.57;5.57;;;29.30;1.00;;;;;;4969932;28;20213;-75
2022/06/03 14:18:04;;;;;;;6.47;4.70;;;29.20;1.00;;;;;;4960681;28;20187;-76
2022/06/03 14:20:49;;;;;;;6.47;4.80;;;29.00;1.00;;;;;;4971535;28;20210;-75
2022/06/03 14:23:31;;;;;;;7.25;5.13;;;29.10;1.00;;;;;;4970862;28;20199;-75
2022/06/03 14:26:07;;;;;;;10.88;5.20;;;29.00;1.00;;;;;;4971758;28;20702;-75
2022/06/03 14:28:41;;;;;;;9.88;5.07;;;28.90;1.00;;;;;;4971448;28;20183;-75
2022/06/03 14:31:11;;;;;;;7.47;5.00;;;28.70;1.00;;;;;;4969520;28;20175;-75
2022/06/03 14:33:40;;;;;;;6.57;4.93;;;28.50;1.00;;;;;;4969317;28;20550;-75
2022/06/03 14:36:07;;;;;;;7.78;4.65;;;28.40;1.00;;;;;;4971300;28;20211;-76
2022/06/03 14:38:58;;;;;;;6.10;5.13;;;28.20;1.00;;;;;;4971115;28;20680;-76
2022/06/03 14:41:28;;;;;;;6.90;5.00;;;28.10;1.00;;;;;;4972950;28;20176;-76
2022/06/03 14:43:55;;;;;;;9.18;5.07;;;28.00;1.00;;;;;;4970864;28;20589;-75
2022/06/03 14:46:27;;;;;;;6.97;5.00;;;27.80;1.00;;;;;;4970604;28;20214;-75